sensor_id;sensor_type;location;lat;lon;timestamp;P1;durP1;ratioP1;P2;durP2;ratioP2
16862;SDS011;52193;48.216;-1.698;2023-09-19T00:01:33;6.65;;;4.60;;
16862;SDS011;52193;48.216;-1.698;2023-09-19T00:04:01;4.90;;;4.43;;
16862;SDS011;52193;48.216;-1.698;2023-09-19T00:06:29;4.95;;;4.55;;
16862;SDS011;52193;48.216;-1.698;2023-09-19T00:08:57;4.90;;;4.53;;
16862;SDS011;52193;48.216;-1.698;2023-09-19T00:11:25;5.22;;;4.55;;
16862;SDS011;52193;48.216;-1.698;2023-09-19T00:13:54;5.65;;;4.35;;
16862;SDS011;52193;48.216;-1.698;2023-09-19T00:16:24;6.13;;;4.55;;
16862;SDS011;52193;48.216;-1.698;2023-09-19T00:18:52;5.20;;;4.70;;
16862;SDS011;52193;48.216;-1.698;2023-09-19T00:21:21;5.75;;;5.20;;
16862;SDS011;52193;48.216;-1.698;2023-09-19T00:23:48;5.35;;;4.25;;
16862;SDS011;52193;48.216;-1.698;2023-09-19T00:26:16;4.68;;;4.32;;
16862;SDS011;52193;48.216;-1.698;2023-09-19T00:28:44;7.38;;;4.70;;
16862;SDS011;52193;48.216;-1.698;2023-09-19T00:31:11;5.15;;;4.75;;
16862;SDS011;52193;48.216;-1.698;2023-09-19T00:33:38;5.47;;;4.40;;
16862;SDS011;52193;48.216;-1.698;2023-09-19T00:36:05;4.88;;;4.47;;
16862;SDS011;52193;48.216;-1.698;2023-09-19T00:38:33;5.03;;;4.63;;
16862;SDS011;52193;48.216;-1.698;2023-09-19T00:41:00;4.82;;;4.43;;
16862;SDS011;52193;48.216;-1.698;2023-09-19T00:43:28;6.75;;;4.88;;
16862;SDS011;52193;48.216;-1.698;2023-09-19T00:45:59;5.18;;;4.78;;
16862;SDS011;52193;48.216;-1.698;2023-09-19T00:48:28;5.22;;;4.63;;
16862;SDS011;52193;48.216;-1.698;2023-09-19T00:50:55;5.00;;;4.60;;
16862;SDS011;52193;48.216;-1.698;2023-09-19T00:53:25;5.35;;;4.90;;
16862;SDS011;52193;48.216;-1.698;2023-09-19T00:55:54;5.07;;;4.60;;
16862;SDS011;52193;48.216;-1.698;2023-09-19T00:58:22;5.55;;;4.70;;
16862;SDS011;52193;48.216;-1.698;2023-09-19T01:00:49;4.90;;;4.40;;
16862;SDS011;52193;48.216;-1.698;2023-09-19T01:03:18;5.47;;;5.07;;
16862;SDS011;52193;48.216;-1.698;2023-09-19T01:05:45;6.30;;;5.40;;
16862;SDS011;52193;48.216;-1.698;2023-09-19T01:08:12;5.18;;;4.78;;
16862;SDS011;52193;48.216;-1.698;2023-09-19T01:10:39;5.03;;;4.63;;
16862;SDS011;52193;48.216;-1.698;2023-09-19T01:13:22;5.88;;;5.28;;
16862;SDS011;52193;48.216;-1.698;2023-09-19T01:15:58;5.78;;;5.20;;
16862;SDS011;52193;48.216;-1.698;2023-09-19T01:18:41;6.38;;;5.30;;
16862;SDS011;52193;48.216;-1.698;2023-09-19T01:21:19;6.00;;;5.40;;
16862;SDS011;52193;48.216;-1.698;2023-09-19T01:24:07;5.53;;;5.03;;
16862;SDS011;52193;48.216;-1.698;2023-09-19T01:26:55;6.25;;;5.32;;
16862;SDS011;52193;48.216;-1.698;2023-09-19T01:29:42;5.78;;;5.30;;
16862;SDS011;52193;48.216;-1.698;2023-09-19T01:32:13;6.40;;;5.65;;
16862;SDS011;52193;48.216;-1.698;2023-09-19T01:34:46;6.45;;;5.68;;
16862;SDS011;52193;48.216;-1.698;2023-09-19T01:37:15;7.35;;;6.05;;
16862;SDS011;52193;48.216;-1.698;2023-09-19T01:39:45;6.05;;;5.60;;
16862;SDS011;52193;48.216;-1.698;2023-09-19T01:42:18;6.13;;;5.53;;
16862;SDS011;52193;48.216;-1.698;2023-09-19T01:44:51;6.55;;;5.95;;
16862;SDS011;52193;48.216;-1.698;2023-09-19T01:47:28;5.85;;;5.35;;
16862;SDS011;52193;48.216;-1.698;2023-09-19T01:50:01;6.28;;;5.70;;
16862;SDS011;52193;48.216;-1.698;2023-09-19T01:52:36;6.53;;;5.90;;
16862;SDS011;52193;48.216;-1.698;2023-09-19T01:55:12;6.10;;;5.60;;
16862;SDS011;52193;48.216;-1.698;2023-09-19T01:57:45;7.50;;;5.88;;
16862;SDS011;52193;48.216;-1.698;2023-09-19T02:00:18;6.72;;;6.03;;
16862;SDS011;52193;48.216;-1.698;2023-09-19T02:02:50;7.50;;;6.28;;
16862;SDS011;52193;48.216;-1.698;2023-09-19T02:05:22;6.35;;;5.78;;
16862;SDS011;52193;48.216;-1.698;2023-09-19T02:07:50;6.97;;;6.28;;
16862;SDS011;52193;48.216;-1.698;2023-09-19T02:10:18;6.75;;;6.05;;
16862;SDS011;52193;48.216;-1.698;2023-09-19T02:12:44;7.15;;;6.03;;
16862;SDS011;52193;48.216;-1.698;2023-09-19T02:15:12;9.52;;;6.20;;
16862;SDS011;52193;48.216;-1.698;2023-09-19T02:17:40;7.28;;;6.25;;
16862;SDS011;52193;48.216;-1.698;2023-09-19T02:20:09;7.70;;;5.95;;
16862;SDS011;52193;48.216;-1.698;2023-09-19T02:22:40;6.60;;;6.05;;
16862;SDS011;52193;48.216;-1.698;2023-09-19T02:25:07;6.38;;;5.70;;
16862;SDS011;52193;48.216;-1.698;2023-09-19T02:27:34;8.75;;;6.15;;
16862;SDS011;52193;48.216;-1.698;2023-09-19T02:30:02;10.48;;;6.50;;
16862;SDS011;52193;48.216;-1.698;2023-09-19T02:32:31;9.55;;;6.40;;
16862;SDS011;52193;48.216;-1.698;2023-09-19T02:35:01;9.07;;;5.72;;
16862;SDS011;52193;48.216;-1.698;2023-09-19T02:37:30;7.13;;;6.18;;
16862;SDS011;52193;48.216;-1.698;2023-09-19T02:39:58;7.72;;;6.07;;
16862;SDS011;52193;48.216;-1.698;2023-09-19T02:42:25;7.18;;;6.13;;
16862;SDS011;52193;48.216;-1.698;2023-09-19T02:44:52;6.93;;;6.28;;
16862;SDS011;52193;48.216;-1.698;2023-09-19T02:47:19;6.82;;;6.18;;
16862;SDS011;52193;48.216;-1.698;2023-09-19T02:49:46;6.93;;;6.28;;
16862;SDS011;52193;48.216;-1.698;2023-09-19T02:52:13;8.38;;;6.35;;
16862;SDS011;52193;48.216;-1.698;2023-09-19T02:54:42;7.32;;;5.93;;
16862;SDS011;52193;48.216;-1.698;2023-09-19T02:57:10;7.68;;;6.50;;
16862;SDS011;52193;48.216;-1.698;2023-09-19T02:59:39;7.40;;;6.70;;
16862;SDS011;52193;48.216;-1.698;2023-09-19T03:02:07;9.10;;;6.25;;
16862;SDS011;52193;48.216;-1.698;2023-09-19T03:04:34;9.35;;;6.95;;
16862;SDS011;52193;48.216;-1.698;2023-09-19T03:07:02;10.02;;;6.78;;
16862;SDS011;52193;48.216;-1.698;2023-09-19T03:09:29;6.50;;;5.90;;
16862;SDS011;52193;48.216;-1.698;2023-09-19T03:11:57;6.80;;;6.10;;
16862;SDS011;52193;48.216;-1.698;2023-09-19T03:14:25;9.73;;;6.80;;
16862;SDS011;52193;48.216;-1.698;2023-09-19T03:16:55;7.75;;;6.38;;
16862;SDS011;52193;48.216;-1.698;2023-09-19T03:19:22;8.27;;;6.45;;
16862;SDS011;52193;48.216;-1.698;2023-09-19T03:21:49;7.43;;;6.13;;
16862;SDS011;52193;48.216;-1.698;2023-09-19T03:24:16;12.35;;;7.05;;
16862;SDS011;52193;48.216;-1.698;2023-09-19T03:26:43;6.97;;;6.28;;
16862;SDS011;52193;48.216;-1.698;2023-09-19T03:29:12;8.88;;;6.57;;
16862;SDS011;52193;48.216;-1.698;2023-09-19T03:31:39;8.57;;;6.70;;
16862;SDS011;52193;48.216;-1.698;2023-09-19T03:34:06;6.82;;;6.13;;
16862;SDS011;52193;48.216;-1.698;2023-09-19T03:36:34;6.97;;;6.10;;
16862;SDS011;52193;48.216;-1.698;2023-09-19T03:39:01;8.48;;;6.65;;
16862;SDS011;52193;48.216;-1.698;2023-09-19T03:41:30;9.23;;;6.78;;
16862;SDS011;52193;48.216;-1.698;2023-09-19T03:43:58;7.78;;;6.65;;
16862;SDS011;52193;48.216;-1.698;2023-09-19T03:46:26;7.03;;;6.40;;
16862;SDS011;52193;48.216;-1.698;2023-09-19T03:48:54;7.82;;;6.47;;
16862;SDS011;52193;48.216;-1.698;2023-09-19T03:51:21;6.97;;;6.15;;
16862;SDS011;52193;48.216;-1.698;2023-09-19T03:53:47;6.93;;;6.32;;
16862;SDS011;52193;48.216;-1.698;2023-09-19T03:56:15;9.43;;;6.93;;
16862;SDS011;52193;48.216;-1.698;2023-09-19T03:58:42;7.75;;;6.88;;
16862;SDS011;52193;48.216;-1.698;2023-09-19T04:01:09;7.03;;;6.43;;
16862;SDS011;52193;48.216;-1.698;2023-09-19T04:03:39;9.38;;;6.68;;
16862;SDS011;52193;48.216;-1.698;2023-09-19T04:06:12;8.90;;;7.05;;
16862;SDS011;52193;48.216;-1.698;2023-09-19T04:08:39;9.23;;;7.18;;
16862;SDS011;52193;48.216;-1.698;2023-09-19T04:11:07;8.27;;;7.45;;
16862;SDS011;52193;48.216;-1.698;2023-09-19T04:13:34;8.02;;;7.18;;
16862;SDS011;52193;48.216;-1.698;2023-09-19T04:16:01;9.63;;;7.20;;
16862;SDS011;52193;48.216;-1.698;2023-09-19T04:18:28;9.10;;;6.97;;
16862;SDS011;52193;48.216;-1.698;2023-09-19T04:20:59;8.60;;;6.82;;
16862;SDS011;52193;48.216;-1.698;2023-09-19T04:23:28;7.95;;;7.18;;
16862;SDS011;52193;48.216;-1.698;2023-09-19T04:25:56;8.20;;;6.60;;
16862;SDS011;52193;48.216;-1.698;2023-09-19T04:28:23;10.02;;;6.65;;
16862;SDS011;52193;48.216;-1.698;2023-09-19T04:30:52;9.75;;;6.78;;
16862;SDS011;52193;48.216;-1.698;2023-09-19T04:33:20;7.15;;;6.55;;
16862;SDS011;52193;48.216;-1.698;2023-09-19T04:35:48;8.18;;;6.80;;
16862;SDS011;52193;48.216;-1.698;2023-09-19T04:38:17;7.53;;;6.70;;
16862;SDS011;52193;48.216;-1.698;2023-09-19T04:40:44;7.93;;;6.80;;
16862;SDS011;52193;48.216;-1.698;2023-09-19T04:43:11;11.95;;;7.13;;
16862;SDS011;52193;48.216;-1.698;2023-09-19T04:45:38;7.07;;;6.47;;
16862;SDS011;52193;48.216;-1.698;2023-09-19T04:48:05;9.75;;;7.22;;
16862;SDS011;52193;48.216;-1.698;2023-09-19T04:50:34;8.00;;;7.30;;
16862;SDS011;52193;48.216;-1.698;2023-09-19T04:53:02;8.07;;;7.38;;
16862;SDS011;52193;48.216;-1.698;2023-09-19T04:55:31;10.48;;;7.00;;
16862;SDS011;52193;48.216;-1.698;2023-09-19T04:57:58;7.80;;;7.07;;
16862;SDS011;52193;48.216;-1.698;2023-09-19T05:00:25;7.93;;;7.20;;
16862;SDS011;52193;48.216;-1.698;2023-09-19T05:02:55;9.60;;;7.15;;
16862;SDS011;52193;48.216;-1.698;2023-09-19T05:05:22;7.90;;;7.20;;
16862;SDS011;52193;48.216;-1.698;2023-09-19T05:07:51;8.65;;;7.32;;
16862;SDS011;52193;48.216;-1.698;2023-09-19T05:10:19;8.30;;;7.50;;
16862;SDS011;52193;48.216;-1.698;2023-09-19T05:12:47;8.25;;;7.55;;
16862;SDS011;52193;48.216;-1.698;2023-09-19T05:15:16;8.27;;;7.50;;
16862;SDS011;52193;48.216;-1.698;2023-09-19T05:17:47;8.52;;;7.53;;
16862;SDS011;52193;48.216;-1.698;2023-09-19T05:20:15;8.75;;;7.68;;
16862;SDS011;52193;48.216;-1.698;2023-09-19T05:22:43;8.88;;;7.82;;
16862;SDS011;52193;48.216;-1.698;2023-09-19T05:25:11;10.95;;;7.55;;
16862;SDS011;52193;48.216;-1.698;2023-09-19T05:27:41;7.93;;;7.15;;
16862;SDS011;52193;48.216;-1.698;2023-09-19T05:30:10;8.55;;;7.70;;
16862;SDS011;52193;48.216;-1.698;2023-09-19T05:32:40;8.80;;;7.85;;
16862;SDS011;52193;48.216;-1.698;2023-09-19T05:35:07;8.35;;;7.57;;
16862;SDS011;52193;48.216;-1.698;2023-09-19T05:37:35;10.50;;;7.95;;
16862;SDS011;52193;48.216;-1.698;2023-09-19T05:40:03;8.48;;;7.68;;
16862;SDS011;52193;48.216;-1.698;2023-09-19T05:42:35;8.25;;;7.45;;
16862;SDS011;52193;48.216;-1.698;2023-09-19T05:45:03;8.48;;;7.57;;
16862;SDS011;52193;48.216;-1.698;2023-09-19T05:47:32;9.50;;;7.90;;
16862;SDS011;52193;48.216;-1.698;2023-09-19T05:49:59;8.55;;;7.85;;
16862;SDS011;52193;48.216;-1.698;2023-09-19T05:52:28;10.25;;;9.35;;
16862;SDS011;52193;48.216;-1.698;2023-09-19T05:54:54;10.25;;;8.70;;
16862;SDS011;52193;48.216;-1.698;2023-09-19T05:57:22;9.20;;;8.45;;
16862;SDS011;52193;48.216;-1.698;2023-09-19T05:59:49;9.90;;;8.98;;
16862;SDS011;52193;48.216;-1.698;2023-09-19T06:02:16;12.95;;;9.32;;
16862;SDS011;52193;48.216;-1.698;2023-09-19T06:04:45;10.38;;;8.93;;
16862;SDS011;52193;48.216;-1.698;2023-09-19T06:07:12;10.18;;;9.15;;
16862;SDS011;52193;48.216;-1.698;2023-09-19T06:09:41;10.43;;;9.57;;
16862;SDS011;52193;48.216;-1.698;2023-09-19T06:12:08;10.68;;;9.63;;
16862;SDS011;52193;48.216;-1.698;2023-09-19T06:14:38;10.60;;;9.68;;
16862;SDS011;52193;48.216;-1.698;2023-09-19T06:17:06;11.02;;;9.93;;
16862;SDS011;52193;48.216;-1.698;2023-09-19T06:19:33;10.98;;;10.07;;
16862;SDS011;52193;48.216;-1.698;2023-09-19T06:22:01;10.52;;;9.52;;
16862;SDS011;52193;48.216;-1.698;2023-09-19T06:24:28;10.68;;;9.48;;
16862;SDS011;52193;48.216;-1.698;2023-09-19T06:26:55;10.50;;;9.50;;
16862;SDS011;52193;48.216;-1.698;2023-09-19T06:29:22;10.82;;;9.80;;
16862;SDS011;52193;48.216;-1.698;2023-09-19T06:31:50;10.52;;;9.50;;
16862;SDS011;52193;48.216;-1.698;2023-09-19T06:34:16;10.45;;;9.55;;
16862;SDS011;52193;48.216;-1.698;2023-09-19T06:36:43;11.43;;;10.05;;
16862;SDS011;52193;48.216;-1.698;2023-09-19T06:39:12;13.32;;;11.27;;
16862;SDS011;52193;48.216;-1.698;2023-09-19T06:41:39;10.90;;;10.13;;
16862;SDS011;52193;48.216;-1.698;2023-09-19T06:44:06;13.27;;;11.98;;
16862;SDS011;52193;48.216;-1.698;2023-09-19T06:46:34;12.50;;;11.35;;
16862;SDS011;52193;48.216;-1.698;2023-09-19T06:49:05;12.80;;;11.70;;
16862;SDS011;52193;48.216;-1.698;2023-09-19T06:51:31;14.05;;;11.73;;
16862;SDS011;52193;48.216;-1.698;2023-09-19T06:53:59;12.93;;;11.82;;
16862;SDS011;52193;48.216;-1.698;2023-09-19T06:56:28;12.98;;;11.88;;
16862;SDS011;52193;48.216;-1.698;2023-09-19T06:58:55;13.85;;;12.55;;
16862;SDS011;52193;48.216;-1.698;2023-09-19T07:01:22;12.85;;;11.63;;
16862;SDS011;52193;48.216;-1.698;2023-09-19T07:03:50;13.55;;;12.25;;
16862;SDS011;52193;48.216;-1.698;2023-09-19T07:06:18;13.40;;;12.25;;
16862;SDS011;52193;48.216;-1.698;2023-09-19T07:08:45;14.43;;;12.98;;
16862;SDS011;52193;48.216;-1.698;2023-09-19T07:11:12;14.70;;;13.23;;
16862;SDS011;52193;48.216;-1.698;2023-09-19T07:13:40;15.63;;;13.10;;
16862;SDS011;52193;48.216;-1.698;2023-09-19T07:16:08;15.70;;;13.48;;
16862;SDS011;52193;48.216;-1.698;2023-09-19T07:18:52;14.80;;;13.23;;
16862;SDS011;52193;48.216;-1.698;2023-09-19T07:21:20;14.40;;;13.23;;
16862;SDS011;52193;48.216;-1.698;2023-09-19T07:23:47;15.15;;;13.77;;
16862;SDS011;52193;48.216;-1.698;2023-09-19T07:26:14;14.48;;;13.38;;
16862;SDS011;52193;48.216;-1.698;2023-09-19T07:28:43;15.02;;;13.63;;
16862;SDS011;52193;48.216;-1.698;2023-09-19T07:31:10;14.77;;;13.48;;
16862;SDS011;52193;48.216;-1.698;2023-09-19T07:33:39;14.95;;;13.73;;
16862;SDS011;52193;48.216;-1.698;2023-09-19T07:36:09;16.63;;;14.90;;
16862;SDS011;52193;48.216;-1.698;2023-09-19T07:38:38;15.52;;;14.15;;
16862;SDS011;52193;48.216;-1.698;2023-09-19T07:41:05;15.65;;;14.38;;
16862;SDS011;52193;48.216;-1.698;2023-09-19T07:43:34;15.43;;;14.02;;
16862;SDS011;52193;48.216;-1.698;2023-09-19T07:46:04;15.55;;;14.18;;
16862;SDS011;52193;48.216;-1.698;2023-09-19T07:48:32;16.30;;;14.60;;
16862;SDS011;52193;48.216;-1.698;2023-09-19T07:51:04;15.68;;;14.30;;
16862;SDS011;52193;48.216;-1.698;2023-09-19T07:53:32;16.35;;;14.85;;
16862;SDS011;52193;48.216;-1.698;2023-09-19T07:56:04;16.35;;;14.95;;
16862;SDS011;52193;48.216;-1.698;2023-09-19T07:58:31;15.73;;;14.43;;
16862;SDS011;52193;48.216;-1.698;2023-09-19T08:01:03;16.50;;;15.10;;
16862;SDS011;52193;48.216;-1.698;2023-09-19T08:03:31;15.93;;;14.65;;
16862;SDS011;52193;48.216;-1.698;2023-09-19T08:05:58;16.33;;;14.73;;
16862;SDS011;52193;48.216;-1.698;2023-09-19T08:08:25;16.55;;;15.10;;
16862;SDS011;52193;48.216;-1.698;2023-09-19T08:10:53;16.63;;;15.07;;
16862;SDS011;52193;48.216;-1.698;2023-09-19T08:13:21;15.82;;;14.50;;
16862;SDS011;52193;48.216;-1.698;2023-09-19T08:15:48;15.40;;;14.05;;
16862;SDS011;52193;48.216;-1.698;2023-09-19T08:18:19;16.17;;;14.57;;
16862;SDS011;52193;48.216;-1.698;2023-09-19T08:20:50;15.93;;;14.30;;
16862;SDS011;52193;48.216;-1.698;2023-09-19T08:23:18;16.48;;;14.90;;
16862;SDS011;52193;48.216;-1.698;2023-09-19T08:25:46;15.73;;;14.27;;
16862;SDS011;52193;48.216;-1.698;2023-09-19T08:28:13;16.40;;;14.93;;
16862;SDS011;52193;48.216;-1.698;2023-09-19T08:30:44;16.83;;;15.23;;
16862;SDS011;52193;48.216;-1.698;2023-09-19T08:33:11;16.15;;;14.90;;
16862;SDS011;52193;48.216;-1.698;2023-09-19T08:35:41;16.30;;;14.88;;
16862;SDS011;52193;48.216;-1.698;2023-09-19T08:38:10;16.63;;;14.82;;
16862;SDS011;52193;48.216;-1.698;2023-09-19T08:40:39;16.33;;;14.93;;
16862;SDS011;52193;48.216;-1.698;2023-09-19T08:43:07;16.08;;;14.65;;
16862;SDS011;52193;48.216;-1.698;2023-09-19T08:45:34;17.13;;;15.57;;
16862;SDS011;52193;48.216;-1.698;2023-09-19T08:48:05;16.52;;;14.90;;
16862;SDS011;52193;48.216;-1.698;2023-09-19T08:50:47;16.65;;;15.00;;
16862;SDS011;52193;48.216;-1.698;2023-09-19T08:53:26;17.02;;;15.30;;
16862;SDS011;52193;48.216;-1.698;2023-09-19T08:55:57;16.70;;;15.20;;
16862;SDS011;52193;48.216;-1.698;2023-09-19T08:58:27;16.23;;;14.82;;
16862;SDS011;52193;48.216;-1.698;2023-09-19T09:00:58;15.88;;;14.38;;
16862;SDS011;52193;48.216;-1.698;2023-09-19T09:03:29;16.00;;;14.70;;
16862;SDS011;52193;48.216;-1.698;2023-09-19T09:06:00;15.88;;;14.40;;
16862;SDS011;52193;48.216;-1.698;2023-09-19T09:08:29;15.35;;;14.05;;
16862;SDS011;52193;48.216;-1.698;2023-09-19T09:10:58;15.38;;;13.95;;
16862;SDS011;52193;48.216;-1.698;2023-09-19T09:13:26;15.25;;;13.73;;
16862;SDS011;52193;48.216;-1.698;2023-09-19T09:15:53;15.10;;;13.70;;
16862;SDS011;52193;48.216;-1.698;2023-09-19T09:18:20;15.95;;;14.63;;
16862;SDS011;52193;48.216;-1.698;2023-09-19T09:20:47;15.45;;;14.15;;
16862;SDS011;52193;48.216;-1.698;2023-09-19T09:23:16;14.77;;;13.27;;
16862;SDS011;52193;48.216;-1.698;2023-09-19T09:25:49;14.95;;;13.80;;
16862;SDS011;52193;48.216;-1.698;2023-09-19T09:28:20;14.50;;;13.30;;
16862;SDS011;52193;48.216;-1.698;2023-09-19T09:30:48;15.90;;;13.45;;
16862;SDS011;52193;48.216;-1.698;2023-09-19T09:33:16;14.30;;;13.10;;
16862;SDS011;52193;48.216;-1.698;2023-09-19T09:35:47;14.80;;;13.38;;
16862;SDS011;52193;48.216;-1.698;2023-09-19T09:38:24;14.23;;;12.73;;
16862;SDS011;52193;48.216;-1.698;2023-09-19T09:40:54;13.73;;;12.30;;
16862;SDS011;52193;48.216;-1.698;2023-09-19T09:43:28;14.25;;;12.75;;
16862;SDS011;52193;48.216;-1.698;2023-09-19T09:46:06;13.30;;;12.13;;
16862;SDS011;52193;48.216;-1.698;2023-09-19T09:49:04;12.82;;;11.90;;
16862;SDS011;52193;48.216;-1.698;2023-09-19T09:51:44;13.40;;;12.20;;
16862;SDS011;52193;48.216;-1.698;2023-09-19T09:54:24;13.70;;;12.30;;
16862;SDS011;52193;48.216;-1.698;2023-09-19T09:56:59;14.00;;;12.68;;
16862;SDS011;52193;48.216;-1.698;2023-09-19T09:59:45;13.13;;;11.80;;
16862;SDS011;52193;48.216;-1.698;2023-09-19T10:02:14;12.85;;;11.48;;
16862;SDS011;52193;48.216;-1.698;2023-09-19T10:04:49;12.88;;;11.75;;
16862;SDS011;52193;48.216;-1.698;2023-09-19T10:07:34;11.93;;;10.85;;
16862;SDS011;52193;48.216;-1.698;2023-09-19T10:10:05;12.07;;;11.05;;
16862;SDS011;52193;48.216;-1.698;2023-09-19T10:12:42;12.13;;;11.13;;
16862;SDS011;52193;48.216;-1.698;2023-09-19T10:15:11;15.07;;;11.23;;
16862;SDS011;52193;48.216;-1.698;2023-09-19T10:17:40;11.25;;;10.10;;
16862;SDS011;52193;48.216;-1.698;2023-09-19T10:20:11;10.95;;;9.90;;
16862;SDS011;52193;48.216;-1.698;2023-09-19T10:22:59;13.95;;;9.85;;
16862;SDS011;52193;48.216;-1.698;2023-09-19T10:25:28;10.52;;;9.00;;
16862;SDS011;52193;48.216;-1.698;2023-09-19T10:27:57;7.88;;;7.10;;
16862;SDS011;52193;48.216;-1.698;2023-09-19T10:30:27;10.85;;;6.80;;
16862;SDS011;52193;48.216;-1.698;2023-09-19T10:32:59;8.30;;;6.35;;
16862;SDS011;52193;48.216;-1.698;2023-09-19T10:35:27;9.55;;;6.93;;
16862;SDS011;52193;48.216;-1.698;2023-09-19T10:37:54;13.93;;;7.28;;
16862;SDS011;52193;48.216;-1.698;2023-09-19T10:40:26;10.43;;;7.20;;
16862;SDS011;52193;48.216;-1.698;2023-09-19T10:43:00;6.80;;;6.15;;
16862;SDS011;52193;48.216;-1.698;2023-09-19T10:45:30;7.03;;;6.22;;
16862;SDS011;52193;48.216;-1.698;2023-09-19T10:47:58;11.15;;;6.72;;
16862;SDS011;52193;48.216;-1.698;2023-09-19T10:50:25;8.77;;;6.35;;
16862;SDS011;52193;48.216;-1.698;2023-09-19T10:52:56;7.47;;;5.75;;
16862;SDS011;52193;48.216;-1.698;2023-09-19T10:55:31;8.75;;;5.95;;
16862;SDS011;52193;48.216;-1.698;2023-09-19T10:58:00;9.23;;;6.32;;
16862;SDS011;52193;48.216;-1.698;2023-09-19T11:00:46;9.05;;;6.10;;
16862;SDS011;52193;48.216;-1.698;2023-09-19T11:03:17;8.75;;;6.68;;
16862;SDS011;52193;48.216;-1.698;2023-09-19T11:06:00;7.90;;;5.75;;
16862;SDS011;52193;48.216;-1.698;2023-09-19T11:11:49;8.48;;;6.07;;
16862;SDS011;52193;48.216;-1.698;2023-09-19T11:14:30;6.80;;;6.10;;
16862;SDS011;52193;48.216;-1.698;2023-09-19T11:23:22;9.10;;;5.90;;
16862;SDS011;52193;48.216;-1.698;2023-09-19T11:25:51;11.30;;;6.32;;
16862;SDS011;52193;48.216;-1.698;2023-09-19T11:28:30;7.32;;;5.30;;
16862;SDS011;52193;48.216;-1.698;2023-09-19T11:30:58;7.05;;;5.43;;
16862;SDS011;52193;48.216;-1.698;2023-09-19T11:33:46;7.65;;;5.63;;
16862;SDS011;52193;48.216;-1.698;2023-09-19T11:36:15;9.23;;;5.53;;
16862;SDS011;52193;48.216;-1.698;2023-09-19T11:38:57;9.52;;;5.90;;
16862;SDS011;52193;48.216;-1.698;2023-09-19T11:41:39;7.38;;;5.13;;
16862;SDS011;52193;48.216;-1.698;2023-09-19T11:47:03;7.28;;;5.55;;
16862;SDS011;52193;48.216;-1.698;2023-09-19T11:49:32;7.35;;;5.50;;
16862;SDS011;52193;48.216;-1.698;2023-09-19T11:52:00;6.82;;;5.88;;
16862;SDS011;52193;48.216;-1.698;2023-09-19T11:54:30;10.23;;;6.15;;
16862;SDS011;52193;48.216;-1.698;2023-09-19T11:56:58;8.30;;;6.30;;
16862;SDS011;52193;48.216;-1.698;2023-09-19T11:59:26;7.20;;;6.15;;
16862;SDS011;52193;48.216;-1.698;2023-09-19T12:01:56;7.90;;;6.13;;
16862;SDS011;52193;48.216;-1.698;2023-09-19T12:04:33;6.38;;;5.60;;
16862;SDS011;52193;48.216;-1.698;2023-09-19T12:07:03;7.00;;;5.90;;
16862;SDS011;52193;48.216;-1.698;2023-09-19T12:09:35;6.65;;;6.00;;
16862;SDS011;52193;48.216;-1.698;2023-09-19T12:12:05;6.68;;;6.07;;
16862;SDS011;52193;48.216;-1.698;2023-09-19T12:14:32;7.93;;;6.10;;
16862;SDS011;52193;48.216;-1.698;2023-09-19T12:17:01;10.02;;;6.20;;
16862;SDS011;52193;48.216;-1.698;2023-09-19T12:19:29;6.93;;;6.20;;
16862;SDS011;52193;48.216;-1.698;2023-09-19T12:21:57;9.52;;;6.25;;
16862;SDS011;52193;48.216;-1.698;2023-09-19T12:24:29;7.35;;;6.53;;
16862;SDS011;52193;48.216;-1.698;2023-09-19T12:26:59;10.45;;;6.50;;
16862;SDS011;52193;48.216;-1.698;2023-09-19T12:29:29;6.43;;;5.88;;
16862;SDS011;52193;48.216;-1.698;2023-09-19T12:31:58;10.77;;;6.00;;
16862;SDS011;52193;48.216;-1.698;2023-09-19T12:34:30;7.40;;;6.10;;
16862;SDS011;52193;48.216;-1.698;2023-09-19T12:37:03;7.75;;;6.32;;
16862;SDS011;52193;48.216;-1.698;2023-09-19T12:39:36;8.60;;;6.45;;
16862;SDS011;52193;48.216;-1.698;2023-09-19T12:42:04;10.98;;;6.47;;
16862;SDS011;52193;48.216;-1.698;2023-09-19T12:44:34;8.88;;;6.28;;
16862;SDS011;52193;48.216;-1.698;2023-09-19T12:47:07;7.97;;;6.32;;
16862;SDS011;52193;48.216;-1.698;2023-09-19T12:50:04;10.60;;;6.82;;
16862;SDS011;52193;48.216;-1.698;2023-09-19T12:52:38;7.15;;;6.05;;
16862;SDS011;52193;48.216;-1.698;2023-09-19T12:55:06;7.30;;;6.13;;
16862;SDS011;52193;48.216;-1.698;2023-09-19T12:57:34;9.32;;;6.28;;
16862;SDS011;52193;48.216;-1.698;2023-09-19T13:00:01;9.40;;;6.50;;
16862;SDS011;52193;48.216;-1.698;2023-09-19T13:02:30;7.00;;;6.30;;
16862;SDS011;52193;48.216;-1.698;2023-09-19T13:04:59;7.38;;;6.13;;
16862;SDS011;52193;48.216;-1.698;2023-09-19T13:07:42;7.60;;;5.82;;
16862;SDS011;52193;48.216;-1.698;2023-09-19T13:10:11;11.02;;;6.00;;
16862;SDS011;52193;48.216;-1.698;2023-09-19T13:12:41;8.85;;;6.28;;
16862;SDS011;52193;48.216;-1.698;2023-09-19T13:15:12;8.13;;;6.03;;
16862;SDS011;52193;48.216;-1.698;2023-09-19T13:17:43;7.88;;;5.95;;
16862;SDS011;52193;48.216;-1.698;2023-09-19T13:20:21;10.38;;;6.55;;
16862;SDS011;52193;48.216;-1.698;2023-09-19T13:22:54;7.28;;;6.32;;
16862;SDS011;52193;48.216;-1.698;2023-09-19T13:25:24;8.32;;;6.53;;
16862;SDS011;52193;48.216;-1.698;2023-09-19T13:27:55;9.30;;;6.50;;
16862;SDS011;52193;48.216;-1.698;2023-09-19T13:30:24;10.68;;;6.03;;
16862;SDS011;52193;48.216;-1.698;2023-09-19T13:32:51;7.93;;;6.25;;
16862;SDS011;52193;48.216;-1.698;2023-09-19T13:35:19;6.82;;;6.13;;
16862;SDS011;52193;48.216;-1.698;2023-09-19T13:37:48;8.88;;;6.15;;
16862;SDS011;52193;48.216;-1.698;2023-09-19T13:40:16;11.13;;;6.55;;
16862;SDS011;52193;48.216;-1.698;2023-09-19T13:42:44;9.73;;;6.00;;
16862;SDS011;52193;48.216;-1.698;2023-09-19T13:45:10;9.18;;;6.00;;
16862;SDS011;52193;48.216;-1.698;2023-09-19T13:47:40;7.75;;;6.07;;
16862;SDS011;52193;48.216;-1.698;2023-09-19T13:50:08;8.85;;;5.80;;
16862;SDS011;52193;48.216;-1.698;2023-09-19T13:52:35;8.05;;;6.00;;
16862;SDS011;52193;48.216;-1.698;2023-09-19T13:55:05;11.73;;;5.70;;
16862;SDS011;52193;48.216;-1.698;2023-09-19T13:57:33;13.00;;;6.32;;
16862;SDS011;52193;48.216;-1.698;2023-09-19T14:00:00;7.85;;;5.43;;
16862;SDS011;52193;48.216;-1.698;2023-09-19T14:02:27;8.52;;;5.97;;
16862;SDS011;52193;48.216;-1.698;2023-09-19T14:04:54;8.88;;;5.93;;
16862;SDS011;52193;48.216;-1.698;2023-09-19T14:07:22;8.43;;;5.97;;
16862;SDS011;52193;48.216;-1.698;2023-09-19T14:09:50;6.53;;;5.78;;
16862;SDS011;52193;48.216;-1.698;2023-09-19T14:12:19;8.63;;;5.80;;
16862;SDS011;52193;48.216;-1.698;2023-09-19T14:14:46;6.32;;;5.72;;
16862;SDS011;52193;48.216;-1.698;2023-09-19T14:17:15;7.55;;;6.00;;
16862;SDS011;52193;48.216;-1.698;2023-09-19T14:19:43;9.55;;;6.28;;
16862;SDS011;52193;48.216;-1.698;2023-09-19T14:22:10;7.03;;;5.85;;
16862;SDS011;52193;48.216;-1.698;2023-09-19T14:24:37;7.63;;;6.10;;
16862;SDS011;52193;48.216;-1.698;2023-09-19T14:27:04;6.63;;;5.45;;
16862;SDS011;52193;48.216;-1.698;2023-09-19T14:29:36;8.05;;;5.72;;
16862;SDS011;52193;48.216;-1.698;2023-09-19T14:32:03;6.45;;;5.70;;
16862;SDS011;52193;48.216;-1.698;2023-09-19T14:34:31;9.85;;;5.70;;
16862;SDS011;52193;48.216;-1.698;2023-09-19T14:36:58;9.85;;;5.68;;
16862;SDS011;52193;48.216;-1.698;2023-09-19T14:39:25;8.93;;;5.65;;
16862;SDS011;52193;48.216;-1.698;2023-09-19T14:41:52;7.40;;;5.88;;
16862;SDS011;52193;48.216;-1.698;2023-09-19T14:44:19;6.22;;;5.43;;
16862;SDS011;52193;48.216;-1.698;2023-09-19T14:46:47;8.30;;;6.38;;
16862;SDS011;52193;48.216;-1.698;2023-09-19T14:49:14;7.15;;;6.13;;
16862;SDS011;52193;48.216;-1.698;2023-09-19T14:51:42;9.40;;;5.78;;
16862;SDS011;52193;48.216;-1.698;2023-09-19T14:54:09;6.93;;;5.65;;